createdAt,value
2018-06-03T00:02:23.137Z,2.92
2018-06-03T00:04:52.824Z,2.85
2018-06-03T00:07:22.703Z,3.33
2018-06-03T00:09:50.442Z,3.15
2018-06-03T00:12:18.239Z,3.35
2018-06-03T00:14:46.292Z,2.97
2018-06-03T00:17:14.308Z,3.50
2018-06-03T00:19:41.944Z,3.00
2018-06-03T00:22:29.388Z,2.90
2018-06-03T00:24:58.678Z,3.53
2018-06-03T00:27:27.292Z,2.92
2018-06-03T00:29:57.697Z,3.28
2018-06-03T00:32:26.910Z,3.42
2018-06-03T00:34:55.611Z,3.00
2018-06-03T00:37:23.882Z,3.10
2018-06-03T00:39:52.166Z,3.62
2018-06-03T00:42:22.427Z,2.97
2018-06-03T00:44:50.927Z,3.10
2018-06-03T00:47:19.758Z,3.70
2018-06-03T00:49:48.318Z,3.50
2018-06-03T00:52:17.309Z,3.47
2018-06-03T00:54:45.648Z,3.25
2018-06-03T00:57:13.949Z,2.97
2018-06-03T00:59:43.306Z,2.90
2018-06-03T01:02:12.494Z,3.42
2018-06-03T01:04:41.249Z,3.70
2018-06-03T01:07:10.371Z,3.30
2018-06-03T01:09:40.126Z,3.00
2018-06-03T01:12:08.275Z,3.28
2018-06-03T01:14:36.899Z,2.90
2018-06-03T01:17:05.140Z,3.60
2018-06-03T01:19:33.016Z,3.58
2018-06-03T01:22:03.334Z,3.35
2018-06-03T01:24:32.081Z,3.00
2018-06-03T01:27:00.699Z,2.87
2018-06-03T01:29:30.512Z,3.10
2018-06-03T01:31:59.051Z,2.60
2018-06-03T01:34:28.413Z,2.87
2018-06-03T01:36:56.796Z,2.83
2018-06-03T01:39:24.468Z,2.80
2018-06-03T01:41:53.310Z,2.95
2018-06-03T01:44:21.611Z,3.15
2018-06-03T01:46:50.484Z,2.87
2018-06-03T01:49:21.059Z,3.25
2018-06-03T01:51:48.755Z,2.58
2018-06-03T01:54:16.703Z,2.72
2018-06-03T01:56:44.418Z,2.80
2018-06-03T01:59:14.575Z,2.50
2018-06-03T02:01:44.037Z,2.72
2018-06-03T02:04:13.534Z,2.87
2018-06-03T02:06:42.498Z,2.60
2018-06-03T02:09:10.682Z,2.60
2018-06-03T02:11:38.433Z,2.70
2018-06-03T02:14:06.252Z,3.00
2018-06-03T02:16:34.820Z,2.50
2018-06-03T02:19:03.320Z,2.75
2018-06-03T02:21:32.709Z,2.90
2018-06-03T02:24:01.529Z,2.90
2018-06-03T02:26:30.064Z,2.87
2018-06-03T02:28:58.769Z,2.75
2018-06-03T02:31:27.356Z,2.65
2018-06-03T02:33:58.127Z,2.97
2018-06-03T02:36:27.888Z,2.50
2018-06-03T02:38:56.429Z,3.03
2018-06-03T02:41:24.283Z,2.77
2018-06-03T02:43:52.747Z,3.08
2018-06-03T02:46:21.262Z,2.70
2018-06-03T02:48:48.951Z,3.30
2018-06-03T02:51:17.714Z,2.93
2018-06-03T02:53:45.387Z,3.42
2018-06-03T02:56:13.159Z,3.60
2018-06-03T02:58:41.725Z,3.40
2018-06-03T03:01:10.186Z,3.97
2018-06-03T03:03:37.940Z,3.37
2018-06-03T03:06:06.067Z,3.07
2018-06-03T03:08:33.935Z,3.55
2018-06-03T03:11:03.414Z,3.57
2018-06-03T03:13:32.863Z,3.10
2018-06-03T03:16:00.602Z,3.50
2018-06-03T03:18:29.007Z,3.28
2018-06-03T03:20:56.678Z,3.40
2018-06-03T03:23:24.360Z,3.60
2018-06-03T03:25:52.868Z,3.70
2018-06-03T03:28:21.482Z,3.58
2018-06-03T03:30:49.200Z,4.00
2018-06-03T03:33:16.877Z,3.70
2018-06-03T03:35:45.386Z,3.40
2018-06-03T03:38:13.108Z,4.03
2018-06-03T03:40:41.347Z,4.53
2018-06-03T03:43:09.103Z,4.03
2018-06-03T03:45:36.807Z,3.47
2018-06-03T03:48:04.591Z,4.33
2018-06-03T03:50:32.658Z,4.43
2018-06-03T03:53:02.378Z,4.13
2018-06-03T03:55:30.120Z,3.87
2018-06-03T03:57:58.789Z,4.03
2018-06-03T04:00:26.546Z,3.97
2018-06-03T04:02:54.285Z,3.92
2018-06-03T04:05:21.966Z,4.20
2018-06-03T04:07:49.659Z,4.40
2018-06-03T04:10:17.365Z,4.00
2018-06-03T04:12:46.998Z,4.10
2018-06-03T04:15:14.747Z,3.70
2018-06-03T04:17:43.292Z,4.17
2018-06-03T04:20:11.032Z,3.78
2018-06-03T04:22:38.795Z,4.30
2018-06-03T04:25:06.435Z,4.30
2018-06-03T04:27:34.147Z,4.25
2018-06-03T04:30:01.932Z,3.95
2018-06-03T04:32:29.601Z,4.22
2018-06-03T04:34:57.332Z,4.50
2018-06-03T04:37:25.061Z,4.43
2018-06-03T04:39:52.805Z,4.70
2018-06-03T04:42:21.073Z,4.57
2018-06-03T04:44:48.854Z,4.32
2018-06-03T04:47:16.529Z,4.30
2018-06-03T04:49:44.758Z,4.72
2018-06-03T04:52:13.028Z,4.35
2018-06-03T04:54:40.849Z,4.50
2018-06-03T04:57:08.718Z,4.03
2018-06-03T04:59:37.226Z,4.43
2018-06-03T05:02:05.651Z,4.87
2018-06-03T05:04:34.909Z,5.12
2018-06-03T05:07:02.686Z,4.65
2018-06-03T05:09:33.213Z,5.22
2018-06-03T05:12:00.931Z,4.80
2018-06-03T05:14:29.466Z,5.90
2018-06-03T05:16:57.263Z,6.40
2018-06-03T05:19:25.126Z,6.07
2018-06-03T05:21:53.577Z,5.85
2018-06-03T05:24:22.292Z,7.68
2018-06-03T05:26:52.719Z,6.90
2018-06-03T05:29:20.514Z,7.00
2018-06-03T05:31:48.161Z,6.28
2018-06-03T05:34:17.474Z,7.05
2018-06-03T05:36:47.943Z,6.55
2018-06-03T05:39:15.717Z,6.47
2018-06-03T05:41:43.472Z,7.45
2018-06-03T05:44:11.143Z,7.25
2018-06-03T05:46:38.863Z,7.47
2018-06-03T05:49:06.522Z,7.07
2018-06-03T05:51:34.252Z,7.47
2018-06-03T05:54:02.557Z,7.53
2018-06-03T05:56:31.119Z,7.35
2018-06-03T05:58:58.779Z,6.85
2018-06-03T06:01:28.183Z,6.93
2018-06-03T06:03:57.482Z,7.45
2018-06-03T06:06:25.590Z,7.28
2018-06-03T06:08:53.756Z,8.10
2018-06-03T06:11:21.649Z,6.47
2018-06-03T06:13:50.653Z,6.90
2018-06-03T06:16:21.400Z,7.60
2018-06-03T06:18:49.066Z,7.43
2018-06-03T06:21:19.970Z,6.57
2018-06-03T06:23:47.686Z,6.72
2018-06-03T06:26:15.814Z,7.25
2018-06-03T06:28:44.394Z,7.20
2018-06-03T06:31:12.147Z,6.82
2018-06-03T06:33:39.795Z,7.12
2018-06-03T06:36:09.843Z,6.70
2018-06-03T06:38:39.379Z,6.85
2018-06-03T06:41:07.116Z,6.57
2018-06-03T06:43:38.879Z,5.82
2018-06-03T06:46:11.042Z,6.12
2018-06-03T06:48:45.134Z,7.12
2018-06-03T06:51:17.281Z,5.40
2018-06-03T06:53:54.260Z,6.18
2018-06-03T06:56:29.234Z,6.12
2018-06-03T06:59:01.283Z,5.78
2018-06-03T07:01:35.141Z,6.05
2018-06-03T07:04:06.846Z,6.28
2018-06-03T07:06:42.106Z,5.68
2018-06-03T07:09:13.676Z,5.40
2018-06-03T07:11:44.798Z,5.68
2018-06-03T07:14:15.602Z,4.75
2018-06-03T07:16:46.018Z,5.93
2018-06-03T07:19:30.512Z,4.75
2018-06-03T07:22:02.150Z,5.07
2018-06-03T07:24:31.201Z,4.72
2018-06-03T07:27:06.706Z,5.18
2018-06-03T07:29:38.331Z,5.18
2018-06-03T07:34:47.736Z,4.68
2018-06-03T07:37:27.341Z,5.85
2018-06-03T07:42:36.347Z,4.62
2018-06-03T07:45:11.207Z,5.25
2018-06-03T07:47:49.290Z,5.03
2018-06-03T07:50:18.467Z,5.18
2018-06-03T07:52:51.976Z,5.60
2018-06-03T07:55:37.090Z,4.93
2018-06-03T07:58:09.724Z,5.22
2018-06-03T08:00:40.615Z,5.50
2018-06-03T08:03:10.438Z,5.20
2018-06-03T08:05:40.661Z,5.45
2018-06-03T08:08:10.270Z,5.50
2018-06-03T08:10:38.081Z,5.62
2018-06-03T08:13:12.676Z,4.97
2018-06-03T08:15:43.843Z,5.50
2018-06-03T08:18:16.301Z,5.07
2018-06-03T08:20:44.302Z,5.18
2018-06-03T08:23:14.123Z,5.10
2018-06-03T08:25:44.108Z,5.20
2018-06-03T08:28:14.528Z,5.00
2018-06-03T08:30:42.258Z,4.35
2018-06-03T08:33:11.100Z,5.12
2018-06-03T08:35:41.636Z,5.20
2018-06-03T08:38:11.371Z,6.20
2018-06-03T08:40:44.487Z,5.32
2018-06-03T08:43:18.024Z,5.65
2018-06-03T08:45:59.752Z,5.20
2018-06-03T08:48:32.710Z,4.68
2018-06-03T08:51:03.776Z,5.12
2018-06-03T08:53:33.315Z,4.97
2018-06-03T08:56:04.479Z,5.32
2018-06-03T08:58:35.003Z,4.50
2018-06-03T09:01:07.222Z,4.78
2018-06-03T09:03:54.891Z,5.15
2018-06-03T09:06:27.255Z,5.37
2018-06-03T09:08:59.044Z,6.43
2018-06-03T09:11:32.236Z,5.40
2018-06-03T09:14:06.167Z,6.75
2018-06-03T09:16:41.586Z,6.72
2018-06-03T09:19:09.999Z,6.32
2018-06-03T09:21:46.123Z,5.07
2018-06-03T09:24:23.026Z,5.35
2018-06-03T09:26:53.210Z,5.85
2018-06-03T09:29:25.564Z,4.90
2018-06-03T09:31:59.365Z,5.00
2018-06-03T09:34:29.921Z,5.68
2018-06-03T09:36:59.888Z,5.47
2018-06-03T09:39:45.809Z,4.97
2018-06-03T09:42:18.703Z,5.22
2018-06-03T09:44:48.556Z,4.60
2018-06-03T09:47:21.992Z,4.57
2018-06-03T09:52:44.567Z,4.87
2018-06-03T09:55:19.132Z,4.75
2018-06-03T09:57:56.924Z,4.28
2018-06-03T10:00:30.073Z,4.32
2018-06-03T10:03:02.542Z,3.92
2018-06-03T10:11:35.105Z,4.97
2018-06-03T10:14:12.600Z,4.95
2018-06-03T10:16:54.409Z,4.60
2018-06-03T10:22:14.616Z,4.40
2018-06-03T10:24:53.344Z,4.00
2018-06-03T10:27:41.886Z,4.45
2018-06-03T10:30:39.244Z,4.15
2018-06-03T10:33:24.227Z,3.80
2018-06-03T10:36:08.157Z,4.47
2018-06-03T10:38:44.714Z,4.03
2018-06-03T10:41:25.858Z,3.92
2018-06-03T10:44:14.255Z,3.80
2018-06-03T10:46:47.352Z,4.32
2018-06-03T10:55:54.629Z,3.87
2018-06-03T10:58:28.804Z,4.03
2018-06-03T11:01:15.627Z,4.75
2018-06-03T11:03:47.753Z,3.55
2018-06-03T11:06:40.474Z,3.80
2018-06-03T11:09:11.071Z,3.45
2018-06-03T11:11:44.898Z,3.90
2018-06-03T11:14:19.129Z,4.22
2018-06-03T11:16:48.789Z,3.72
2018-06-03T11:19:25.046Z,4.30
2018-06-03T11:22:09.735Z,4.22
2018-06-03T11:24:43.306Z,3.80
2018-06-03T11:27:25.203Z,3.17
2018-06-03T11:35:19.880Z,4.25
2018-06-03T11:37:55.667Z,3.58
2018-06-03T11:40:49.867Z,4.10
2018-06-03T11:43:33.541Z,3.85
2018-06-03T11:46:08.481Z,3.70
2018-06-03T11:51:30.336Z,3.15
2018-06-03T11:54:10.112Z,3.50
2018-06-03T11:56:53.097Z,3.62
2018-06-03T11:59:35.835Z,3.80
2018-06-03T12:02:09.092Z,3.30
2018-06-03T12:04:42.736Z,3.55
2018-06-03T12:07:25.570Z,3.58
2018-06-03T12:09:57.797Z,3.30
2018-06-03T12:12:32.952Z,3.53
2018-06-03T12:15:09.056Z,3.58
2018-06-03T12:17:43.208Z,3.55
2018-06-03T12:20:22.285Z,4.00
2018-06-03T12:23:14.937Z,3.80
2018-06-03T12:25:52.586Z,3.45
2018-06-03T12:43:48.062Z,3.20
2018-06-03T12:46:19.186Z,3.17
2018-06-03T12:48:55.664Z,3.45
2018-06-03T12:54:28.675Z,4.00
2018-06-03T12:57:00.657Z,4.30
2018-06-03T12:59:33.113Z,3.95
2018-06-03T13:02:10.554Z,3.53
2018-06-03T13:04:43.350Z,3.92
2018-06-03T13:13:40.409Z,3.62
2018-06-03T13:16:29.156Z,4.12
2018-06-03T13:22:23.128Z,3.90
2018-06-03T13:28:13.370Z,4.15
2018-06-03T13:31:10.528Z,4.18
2018-06-03T13:33:48.528Z,4.12
2018-06-03T13:43:43.409Z,4.35
2018-06-03T13:46:23.116Z,5.18
2018-06-03T13:49:04.318Z,4.25
2018-06-03T13:54:28.844Z,4.07
2018-06-03T14:03:52.172Z,5.15
2018-06-03T14:06:46.122Z,4.60
2018-06-03T14:12:05.931Z,5.30
2018-06-03T14:20:05.370Z,4.53
2018-06-03T14:22:35.564Z,4.57
2018-06-03T14:25:09.911Z,4.25
2018-06-03T14:27:54.428Z,4.35
2018-06-03T14:33:37.736Z,3.78
2018-06-03T14:36:14.462Z,3.70
2018-06-03T14:38:59.285Z,4.47
2018-06-03T14:41:27.638Z,4.50
2018-06-03T14:47:25.776Z,4.50
2018-06-03T14:52:34.596Z,4.22
2018-06-03T14:55:09.541Z,4.12
2018-06-03T15:00:13.187Z,4.25
2018-06-03T15:02:48.503Z,4.05
2018-06-03T15:05:19.865Z,4.80
2018-06-03T15:07:49.311Z,4.60
2018-06-03T15:10:18.570Z,4.28
2018-06-03T15:12:49.790Z,4.72
2018-06-03T15:15:27.623Z,4.35
2018-06-03T15:17:56.595Z,4.68
2018-06-03T15:20:25.312Z,5.28
2018-06-03T15:22:54.616Z,5.28
2018-06-03T15:25:26.215Z,4.32
2018-06-03T15:27:59.353Z,4.87
2018-06-03T15:30:36.011Z,5.50
2018-06-03T15:33:08.805Z,5.07
2018-06-03T15:35:38.953Z,5.82
2018-06-03T15:38:08.643Z,5.82
2018-06-03T15:40:37.784Z,5.30
2018-06-03T15:43:05.512Z,5.37
2018-06-03T15:45:37.679Z,5.35
2018-06-03T15:48:16.422Z,5.78
2018-06-03T15:50:50.630Z,5.75
2018-06-03T15:53:23.959Z,5.40
2018-06-03T15:55:57.451Z,5.85
2018-06-03T16:01:10.660Z,5.45
2018-06-03T16:03:40.225Z,5.43
2018-06-03T16:06:13.302Z,5.53
2018-06-03T16:08:41.760Z,4.95
2018-06-03T16:11:16.404Z,5.55
2018-06-03T16:13:44.969Z,5.10
2018-06-03T16:16:13.873Z,5.75
2018-06-03T16:18:46.092Z,5.85
2018-06-03T16:21:28.805Z,6.50
2018-06-03T16:23:58.051Z,5.87
2018-06-03T16:26:28.872Z,5.70
2018-06-03T16:29:02.065Z,5.60
2018-06-03T16:31:35.063Z,7.40
2018-06-03T16:34:06.439Z,6.47
2018-06-03T16:36:38.184Z,5.97
2018-06-03T16:39:07.218Z,6.18
2018-06-03T16:41:35.269Z,5.35
2018-06-03T16:44:04.164Z,6.57
2018-06-03T16:46:33.637Z,5.97
2018-06-03T16:49:05.077Z,6.05
2018-06-03T16:51:37.343Z,5.87
2018-06-03T16:54:07.005Z,5.68
2018-06-03T16:56:36.809Z,5.43
2018-06-03T16:59:04.616Z,5.57
2018-06-03T17:01:34.627Z,6.28
2018-06-03T17:04:03.379Z,6.32
2018-06-03T17:06:36.673Z,5.80
2018-06-03T17:09:10.339Z,5.78
2018-06-03T17:11:40.497Z,6.15
2018-06-03T17:14:09.884Z,6.90
2018-06-03T17:19:12.159Z,6.32
2018-06-03T17:21:42.044Z,6.15
2018-06-03T17:24:14.382Z,6.18
2018-06-03T17:26:42.953Z,6.37
2018-06-03T17:29:14.607Z,6.32
2018-06-03T17:31:47.587Z,5.75
2018-06-03T17:34:28.749Z,6.00
2018-06-03T17:36:59.432Z,6.15
2018-06-03T17:42:47.247Z,6.22
2018-06-03T17:45:16.624Z,5.97
2018-06-03T17:47:44.359Z,6.43
2018-06-03T17:50:12.072Z,7.00
2018-06-03T17:52:39.778Z,6.68
2018-06-03T17:55:08.252Z,6.60
2018-06-03T17:57:35.947Z,6.45
2018-06-03T18:00:03.719Z,6.35
2018-06-03T18:02:31.422Z,7.10
2018-06-03T18:04:59.112Z,6.62
2018-06-03T18:07:26.836Z,7.22
2018-06-03T18:09:57.664Z,6.78
2018-06-03T18:12:29.496Z,7.05
2018-06-03T18:14:57.292Z,6.95
2018-06-03T18:17:25.193Z,7.18
2018-06-03T18:19:54.991Z,6.07
2018-06-03T18:22:24.810Z,6.18
2018-06-03T18:24:54.399Z,6.12
2018-06-03T18:27:23.738Z,5.87
2018-06-03T18:29:52.710Z,6.43
2018-06-03T18:32:21.624Z,6.12
2018-06-03T18:34:50.787Z,5.82
2018-06-03T18:37:19.886Z,6.28
2018-06-03T18:39:49.037Z,5.95
2018-06-03T18:42:18.147Z,7.28
2018-06-03T18:44:46.867Z,6.15
2018-06-03T18:47:15.772Z,6.25
2018-06-03T18:49:44.780Z,6.75
2018-06-03T18:52:13.989Z,6.72
2018-06-03T18:54:43.020Z,5.87
2018-06-03T18:57:12.305Z,5.37
2018-06-03T19:02:52.173Z,6.87
2018-06-03T19:05:21.236Z,7.25
2018-06-03T19:07:50.776Z,6.40
2018-06-03T19:10:20.634Z,7.22
2018-06-03T19:12:48.363Z,7.50
2018-06-03T19:15:16.050Z,8.00
2018-06-03T19:17:43.769Z,6.03
2018-06-03T19:20:12.734Z,6.43
2018-06-03T19:22:40.467Z,6.82
2018-06-03T19:25:08.187Z,6.00
2018-06-03T19:27:35.845Z,6.30
2018-06-03T19:30:03.627Z,5.62
2018-06-03T19:32:31.352Z,6.53
2018-06-03T19:34:59.795Z,6.62
2018-06-03T19:37:27.479Z,6.45
2018-06-03T19:39:55.174Z,6.28
2018-06-03T19:42:23.566Z,5.78
2018-06-03T19:44:51.395Z,6.68
2018-06-03T19:47:19.232Z,5.68
2018-06-03T19:49:46.902Z,6.05
2018-06-03T19:52:14.565Z,6.10
2018-06-03T19:54:42.195Z,5.60
2018-06-03T19:57:09.839Z,6.22
2018-06-03T19:59:38.497Z,6.00
2018-06-03T20:02:07.025Z,6.20
2018-06-03T20:04:42.702Z,6.80
2018-06-03T20:07:13.618Z,5.87
2018-06-03T20:09:41.429Z,6.05
2018-06-03T20:12:13.477Z,7.28
2018-06-03T20:14:41.158Z,6.93
2018-06-03T20:20:39.598Z,5.95
2018-06-03T20:23:15.507Z,5.62
2018-06-03T20:25:44.651Z,5.97
2018-06-03T20:28:16.603Z,5.50
2018-06-03T20:34:10.786Z,7.68
2018-06-03T20:36:58.770Z,6.72
2018-06-03T20:39:49.970Z,7.20
2018-06-03T20:42:35.785Z,7.15
2018-06-03T20:45:07.919Z,6.68
2018-06-03T20:47:37.174Z,6.47
2018-06-03T20:50:06.417Z,7.07
2018-06-03T20:52:37.226Z,6.47
2018-06-03T20:55:07.131Z,6.30
2018-06-03T20:57:36.478Z,6.40
2018-06-03T21:00:05.649Z,7.00
2018-06-03T21:02:35.696Z,6.18
2018-06-03T21:05:04.966Z,6.90
2018-06-03T21:07:34.348Z,7.20
2018-06-03T21:10:03.492Z,7.45
2018-06-03T21:12:32.624Z,7.82
2018-06-03T21:15:01.652Z,6.53
2018-06-03T21:17:29.926Z,7.30
2018-06-03T21:19:59.211Z,8.82
2018-06-03T21:22:28.386Z,7.95
2018-06-03T21:24:57.491Z,7.30
2018-06-03T21:27:26.728Z,8.00
2018-06-03T21:29:56.074Z,8.80
2018-06-03T21:32:25.205Z,8.00
2018-06-03T21:34:54.248Z,7.87
2018-06-03T21:37:23.281Z,8.32
2018-06-03T21:39:52.241Z,8.40
2018-06-03T21:42:21.462Z,8.38
2018-06-03T21:44:50.711Z,6.75
2018-06-03T21:47:20.329Z,6.95
2018-06-03T21:49:49.502Z,8.10
2018-06-03T21:52:19.467Z,7.72
2018-06-03T21:54:48.591Z,9.02
2018-06-03T21:57:18.438Z,7.87
2018-06-03T21:59:47.449Z,7.62
2018-06-03T22:02:16.455Z,7.40
2018-06-03T22:04:45.572Z,10.15
2018-06-03T22:07:14.586Z,8.13
2018-06-03T22:09:43.755Z,8.82
2018-06-03T22:12:13.050Z,8.55
2018-06-03T22:14:42.194Z,8.60
2018-06-03T22:17:11.296Z,8.55
2018-06-03T22:19:41.236Z,8.20
2018-06-03T22:22:10.442Z,8.07
2018-06-03T22:24:38.277Z,7.57
2018-06-03T22:27:06.820Z,6.90
2018-06-03T22:29:34.595Z,7.47
2018-06-03T22:32:02.370Z,7.47
2018-06-03T22:34:30.834Z,6.93
2018-06-03T22:36:58.618Z,7.32
2018-06-03T22:39:26.408Z,7.72
2018-06-03T22:41:54.936Z,7.87
2018-06-03T22:44:22.696Z,7.05
2018-06-03T22:46:50.443Z,7.03
2018-06-03T22:49:18.194Z,7.32
2018-06-03T22:51:45.942Z,7.55
2018-06-03T22:54:13.698Z,7.55
2018-06-03T22:56:41.517Z,7.43
2018-06-03T22:59:09.295Z,7.53
2018-06-03T23:01:37.104Z,7.90
2018-06-03T23:04:05.747Z,7.35
2018-06-03T23:06:35.583Z,7.30
2018-06-03T23:09:03.378Z,7.28
2018-06-03T23:11:31.111Z,7.80
2018-06-03T23:13:58.839Z,7.53
2018-06-03T23:16:26.716Z,7.20
2018-06-03T23:18:54.434Z,7.90
2018-06-03T23:21:22.193Z,7.97
2018-06-03T23:23:50.693Z,7.43
2018-06-03T23:26:18.427Z,6.40
2018-06-03T23:28:46.938Z,6.87
2018-06-03T23:31:14.688Z,7.32
2018-06-03T23:33:43.179Z,7.18
2018-06-03T23:36:10.914Z,6.85
2018-06-03T23:38:38.668Z,6.97
2018-06-03T23:41:06.377Z,8.20
2018-06-03T23:43:34.152Z,7.43
2018-06-03T23:46:02.123Z,6.68
2018-06-03T23:48:29.900Z,6.85
2018-06-03T23:50:57.848Z,6.68
2018-06-03T23:53:25.634Z,7.32
2018-06-03T23:55:53.394Z,7.93
2018-06-03T23:58:21.239Z,7.82
